sensor_id;sensor_type;location;lat;lon;timestamp;P1;durP1;ratioP1;P2;durP2;ratioP2
36445;SDS011;22472;50.848;-1.216;2023-09-19T00:00:55;15.27;;;1.83;;
36445;SDS011;22472;50.848;-1.216;2023-09-19T00:05:52;10.20;;;1.60;;
36445;SDS011;22472;50.848;-1.216;2023-09-19T00:08:20;12.43;;;1.50;;
36445;SDS011;22472;50.848;-1.216;2023-09-19T00:10:50;13.48;;;1.92;;
36445;SDS011;22472;50.848;-1.216;2023-09-19T00:13:18;9.35;;;1.50;;
36445;SDS011;22472;50.848;-1.216;2023-09-19T00:15:46;11.00;;;1.75;;
36445;SDS011;22472;50.848;-1.216;2023-09-19T00:18:14;13.38;;;2.30;;
36445;SDS011;22472;50.848;-1.216;2023-09-19T00:20:42;14.65;;;1.73;;
36445;SDS011;22472;50.848;-1.216;2023-09-19T00:23:14;14.85;;;2.10;;
36445;SDS011;22472;50.848;-1.216;2023-09-19T00:25:41;14.05;;;2.08;;
36445;SDS011;22472;50.848;-1.216;2023-09-19T00:28:09;12.35;;;1.80;;
36445;SDS011;22472;50.848;-1.216;2023-09-19T00:30:36;11.40;;;1.85;;
36445;SDS011;22472;50.848;-1.216;2023-09-19T00:33:04;13.45;;;1.80;;
36445;SDS011;22472;50.848;-1.216;2023-09-19T00:35:33;12.35;;;2.08;;
36445;SDS011;22472;50.848;-1.216;2023-09-19T00:38:02;13.32;;;2.20;;
36445;SDS011;22472;50.848;-1.216;2023-09-19T00:40:30;12.23;;;1.73;;
36445;SDS011;22472;50.848;-1.216;2023-09-19T00:42:58;12.38;;;1.80;;
36445;SDS011;22472;50.848;-1.216;2023-09-19T00:45:26;15.25;;;2.25;;
36445;SDS011;22472;50.848;-1.216;2023-09-19T00:47:54;12.20;;;2.17;;
36445;SDS011;22472;50.848;-1.216;2023-09-19T00:50:22;17.60;;;2.60;;
36445;SDS011;22472;50.848;-1.216;2023-09-19T00:52:53;16.13;;;2.40;;
36445;SDS011;22472;50.848;-1.216;2023-09-19T00:55:21;13.23;;;2.42;;
36445;SDS011;22472;50.848;-1.216;2023-09-19T00:57:49;16.02;;;2.35;;
36445;SDS011;22472;50.848;-1.216;2023-09-19T01:00:17;15.43;;;2.58;;
36445;SDS011;22472;50.848;-1.216;2023-09-19T01:02:45;17.67;;;2.10;;
36445;SDS011;22472;50.848;-1.216;2023-09-19T01:05:12;17.73;;;2.38;;
36445;SDS011;22472;50.848;-1.216;2023-09-19T01:07:40;14.75;;;2.78;;
36445;SDS011;22472;50.848;-1.216;2023-09-19T01:10:08;14.10;;;2.40;;
36445;SDS011;22472;50.848;-1.216;2023-09-19T01:12:44;14.23;;;1.90;;
36445;SDS011;22472;50.848;-1.216;2023-09-19T01:15:19;15.88;;;2.45;;
36445;SDS011;22472;50.848;-1.216;2023-09-19T01:17:49;13.73;;;2.15;;
36445;SDS011;22472;50.848;-1.216;2023-09-19T01:20:21;12.88;;;2.00;;
36445;SDS011;22472;50.848;-1.216;2023-09-19T01:22:56;16.52;;;2.30;;
36445;SDS011;22472;50.848;-1.216;2023-09-19T01:25:44;14.38;;;1.70;;
36445;SDS011;22472;50.848;-1.216;2023-09-19T01:28:20;10.32;;;1.70;;
36445;SDS011;22472;50.848;-1.216;2023-09-19T01:30:55;11.95;;;2.08;;
36445;SDS011;22472;50.848;-1.216;2023-09-19T01:33:24;12.02;;;2.10;;
36445;SDS011;22472;50.848;-1.216;2023-09-19T01:35:52;12.88;;;2.25;;
36445;SDS011;22472;50.848;-1.216;2023-09-19T01:38:22;13.75;;;2.08;;
36445;SDS011;22472;50.848;-1.216;2023-09-19T01:40:53;17.92;;;2.13;;
36445;SDS011;22472;50.848;-1.216;2023-09-19T01:43:26;16.50;;;2.10;;
36445;SDS011;22472;50.848;-1.216;2023-09-19T01:46:01;16.50;;;2.13;;
36445;SDS011;22472;50.848;-1.216;2023-09-19T01:48:34;14.75;;;2.25;;
36445;SDS011;22472;50.848;-1.216;2023-09-19T01:51:05;15.05;;;2.53;;
36445;SDS011;22472;50.848;-1.216;2023-09-19T01:53:33;13.23;;;1.90;;
36445;SDS011;22472;50.848;-1.216;2023-09-19T01:56:00;14.85;;;2.22;;
36445;SDS011;22472;50.848;-1.216;2023-09-19T01:58:33;11.32;;;1.90;;
36445;SDS011;22472;50.848;-1.216;2023-09-19T02:01:02;14.00;;;2.03;;
36445;SDS011;22472;50.848;-1.216;2023-09-19T02:03:31;14.32;;;2.28;;
36445;SDS011;22472;50.848;-1.216;2023-09-19T02:05:58;20.48;;;2.53;;
36445;SDS011;22472;50.848;-1.216;2023-09-19T02:08:26;15.73;;;2.28;;
36445;SDS011;22472;50.848;-1.216;2023-09-19T02:10:54;14.43;;;1.90;;
36445;SDS011;22472;50.848;-1.216;2023-09-19T02:13:22;21.30;;;2.40;;
36445;SDS011;22472;50.848;-1.216;2023-09-19T02:15:50;14.25;;;1.77;;
36445;SDS011;22472;50.848;-1.216;2023-09-19T02:18:19;15.73;;;2.10;;
36445;SDS011;22472;50.848;-1.216;2023-09-19T02:20:46;18.58;;;2.38;;
36445;SDS011;22472;50.848;-1.216;2023-09-19T02:23:14;13.65;;;2.03;;
36445;SDS011;22472;50.848;-1.216;2023-09-19T02:25:42;15.45;;;2.30;;
36445;SDS011;22472;50.848;-1.216;2023-09-19T02:28:10;16.27;;;2.40;;
36445;SDS011;22472;50.848;-1.216;2023-09-19T02:30:37;13.00;;;1.90;;
36445;SDS011;22472;50.848;-1.216;2023-09-19T02:33:05;17.30;;;2.33;;
36445;SDS011;22472;50.848;-1.216;2023-09-19T02:35:34;18.20;;;2.60;;
36445;SDS011;22472;50.848;-1.216;2023-09-19T02:38:02;15.90;;;1.92;;
36445;SDS011;22472;50.848;-1.216;2023-09-19T02:40:31;15.77;;;2.00;;
36445;SDS011;22472;50.848;-1.216;2023-09-19T02:43:01;15.02;;;1.85;;
36445;SDS011;22472;50.848;-1.216;2023-09-19T02:45:28;15.10;;;1.98;;
36445;SDS011;22472;50.848;-1.216;2023-09-19T02:47:56;17.30;;;2.03;;
36445;SDS011;22472;50.848;-1.216;2023-09-19T02:50:24;15.15;;;2.08;;
36445;SDS011;22472;50.848;-1.216;2023-09-19T02:52:52;14.52;;;1.92;;
36445;SDS011;22472;50.848;-1.216;2023-09-19T02:55:20;13.85;;;1.50;;
36445;SDS011;22472;50.848;-1.216;2023-09-19T02:57:48;12.52;;;1.42;;
36445;SDS011;22472;50.848;-1.216;2023-09-19T03:00:16;10.32;;;1.50;;
36445;SDS011;22472;50.848;-1.216;2023-09-19T03:05:13;14.68;;;1.73;;
36445;SDS011;22472;50.848;-1.216;2023-09-19T03:07:41;13.85;;;1.98;;
36445;SDS011;22472;50.848;-1.216;2023-09-19T03:10:12;11.93;;;1.60;;
36445;SDS011;22472;50.848;-1.216;2023-09-19T03:12:41;15.15;;;1.40;;
36445;SDS011;22472;50.848;-1.216;2023-09-19T03:15:08;12.25;;;1.60;;
36445;SDS011;22472;50.848;-1.216;2023-09-19T03:17:36;11.85;;;1.38;;
36445;SDS011;22472;50.848;-1.216;2023-09-19T03:20:03;12.38;;;1.48;;
36445;SDS011;22472;50.848;-1.216;2023-09-19T03:22:33;11.35;;;1.27;;
36445;SDS011;22472;50.848;-1.216;2023-09-19T03:25:01;13.20;;;1.48;;
36445;SDS011;22472;50.848;-1.216;2023-09-19T03:27:34;12.25;;;1.83;;
36445;SDS011;22472;50.848;-1.216;2023-09-19T03:30:02;10.32;;;1.52;;
36445;SDS011;22472;50.848;-1.216;2023-09-19T03:32:32;10.98;;;1.60;;
36445;SDS011;22472;50.848;-1.216;2023-09-19T03:34:59;9.15;;;1.55;;
36445;SDS011;22472;50.848;-1.216;2023-09-19T03:37:27;13.55;;;1.25;;
36445;SDS011;22472;50.848;-1.216;2023-09-19T03:39:54;10.68;;;1.20;;
36445;SDS011;22472;50.848;-1.216;2023-09-19T03:42:21;18.80;;;2.03;;
36445;SDS011;22472;50.848;-1.216;2023-09-19T03:44:52;11.65;;;1.23;;
36445;SDS011;22472;50.848;-1.216;2023-09-19T03:47:20;15.40;;;1.70;;
36445;SDS011;22472;50.848;-1.216;2023-09-19T03:49:47;12.77;;;1.60;;
36445;SDS011;22472;50.848;-1.216;2023-09-19T03:52:15;14.35;;;1.77;;
36445;SDS011;22472;50.848;-1.216;2023-09-19T03:54:42;15.95;;;2.10;;
36445;SDS011;22472;50.848;-1.216;2023-09-19T03:57:09;13.27;;;1.77;;
36445;SDS011;22472;50.848;-1.216;2023-09-19T03:59:38;11.70;;;1.70;;
36445;SDS011;22472;50.848;-1.216;2023-09-19T04:02:09;13.88;;;1.60;;
36445;SDS011;22472;50.848;-1.216;2023-09-19T04:04:47;14.15;;;1.90;;
36445;SDS011;22472;50.848;-1.216;2023-09-19T04:07:14;12.85;;;1.58;;
36445;SDS011;22472;50.848;-1.216;2023-09-19T04:09:41;14.82;;;2.15;;
36445;SDS011;22472;50.848;-1.216;2023-09-19T04:12:09;9.98;;;1.25;;
36445;SDS011;22472;50.848;-1.216;2023-09-19T04:14:36;15.70;;;1.77;;
36445;SDS011;22472;50.848;-1.216;2023-09-19T04:17:04;12.93;;;1.20;;
36445;SDS011;22472;50.848;-1.216;2023-09-19T04:19:33;12.15;;;1.23;;
36445;SDS011;22472;50.848;-1.216;2023-09-19T04:22:00;11.65;;;1.60;;
36445;SDS011;22472;50.848;-1.216;2023-09-19T04:24:29;10.40;;;1.48;;
36445;SDS011;22472;50.848;-1.216;2023-09-19T04:26:57;8.82;;;1.00;;
36445;SDS011;22472;50.848;-1.216;2023-09-19T04:29:25;9.88;;;1.02;;
36445;SDS011;22472;50.848;-1.216;2023-09-19T04:31:55;10.50;;;1.03;;
36445;SDS011;22472;50.848;-1.216;2023-09-19T04:34:23;9.10;;;0.98;;
36445;SDS011;22472;50.848;-1.216;2023-09-19T04:36:51;7.80;;;0.98;;
36445;SDS011;22472;50.848;-1.216;2023-09-19T04:39:19;9.20;;;1.13;;
36445;SDS011;22472;50.848;-1.216;2023-09-19T04:41:46;15.88;;;1.52;;
36445;SDS011;22472;50.848;-1.216;2023-09-19T04:44:13;10.00;;;1.05;;
36445;SDS011;22472;50.848;-1.216;2023-09-19T04:46:40;9.82;;;1.08;;
36445;SDS011;22472;50.848;-1.216;2023-09-19T04:49:08;12.80;;;1.70;;
36445;SDS011;22472;50.848;-1.216;2023-09-19T04:51:35;15.45;;;1.70;;
36445;SDS011;22472;50.848;-1.216;2023-09-19T04:54:04;11.43;;;1.48;;
36445;SDS011;22472;50.848;-1.216;2023-09-19T04:56:31;15.02;;;1.90;;
36445;SDS011;22472;50.848;-1.216;2023-09-19T04:58:59;12.18;;;1.80;;
36445;SDS011;22472;50.848;-1.216;2023-09-19T05:01:26;18.52;;;1.80;;
36445;SDS011;22472;50.848;-1.216;2023-09-19T05:03:54;20.38;;;2.42;;
36445;SDS011;22472;50.848;-1.216;2023-09-19T05:06:21;13.02;;;1.60;;
36445;SDS011;22472;50.848;-1.216;2023-09-19T05:08:48;15.13;;;1.90;;
36445;SDS011;22472;50.848;-1.216;2023-09-19T05:11:18;12.90;;;1.90;;
36445;SDS011;22472;50.848;-1.216;2023-09-19T05:13:46;11.70;;;1.60;;
36445;SDS011;22472;50.848;-1.216;2023-09-19T05:16:15;16.13;;;1.67;;
36445;SDS011;22472;50.848;-1.216;2023-09-19T05:18:43;12.23;;;1.50;;
36445;SDS011;22472;50.848;-1.216;2023-09-19T05:21:10;17.95;;;2.10;;
36445;SDS011;22472;50.848;-1.216;2023-09-19T05:23:38;16.08;;;1.98;;
36445;SDS011;22472;50.848;-1.216;2023-09-19T05:26:06;15.40;;;2.20;;
36445;SDS011;22472;50.848;-1.216;2023-09-19T05:28:34;20.13;;;2.63;;
36445;SDS011;22472;50.848;-1.216;2023-09-19T05:31:03;14.50;;;2.40;;
36445;SDS011;22472;50.848;-1.216;2023-09-19T05:33:30;12.95;;;1.73;;
36445;SDS011;22472;50.848;-1.216;2023-09-19T05:35:58;11.75;;;1.20;;
36445;SDS011;22472;50.848;-1.216;2023-09-19T05:38:25;9.00;;;1.45;;
36445;SDS011;22472;50.848;-1.216;2023-09-19T05:40:52;10.15;;;1.30;;
36445;SDS011;22472;50.848;-1.216;2023-09-19T05:43:20;9.27;;;1.50;;
36445;SDS011;22472;50.848;-1.216;2023-09-19T05:45:48;12.57;;;1.50;;
36445;SDS011;22472;50.848;-1.216;2023-09-19T05:48:17;16.27;;;1.75;;
36445;SDS011;22472;50.848;-1.216;2023-09-19T05:50:46;13.23;;;1.50;;
36445;SDS011;22472;50.848;-1.216;2023-09-19T05:53:13;13.52;;;1.55;;
36445;SDS011;22472;50.848;-1.216;2023-09-19T05:55:41;13.88;;;1.38;;
36445;SDS011;22472;50.848;-1.216;2023-09-19T05:58:08;17.15;;;1.98;;
36445;SDS011;22472;50.848;-1.216;2023-09-19T06:00:39;14.40;;;2.17;;
36445;SDS011;22472;50.848;-1.216;2023-09-19T06:03:09;15.30;;;1.83;;
36445;SDS011;22472;50.848;-1.216;2023-09-19T06:05:38;16.73;;;2.38;;
36445;SDS011;22472;50.848;-1.216;2023-09-19T06:08:06;15.10;;;2.17;;
36445;SDS011;22472;50.848;-1.216;2023-09-19T06:10:34;14.63;;;2.13;;
36445;SDS011;22472;50.848;-1.216;2023-09-19T06:13:02;13.57;;;2.17;;
36445;SDS011;22472;50.848;-1.216;2023-09-19T06:15:31;17.15;;;2.40;;
36445;SDS011;22472;50.848;-1.216;2023-09-19T06:18:01;16.42;;;3.17;;
36445;SDS011;22472;50.848;-1.216;2023-09-19T06:20:32;18.27;;;2.90;;
36445;SDS011;22472;50.848;-1.216;2023-09-19T06:22:59;18.27;;;2.95;;
36445;SDS011;22472;50.848;-1.216;2023-09-19T06:25:27;18.45;;;3.05;;
36445;SDS011;22472;50.848;-1.216;2023-09-19T06:27:54;22.13;;;3.13;;
36445;SDS011;22472;50.848;-1.216;2023-09-19T06:30:22;18.42;;;3.08;;
36445;SDS011;22472;50.848;-1.216;2023-09-19T06:32:55;19.92;;;3.10;;
36445;SDS011;22472;50.848;-1.216;2023-09-19T06:35:22;20.00;;;3.28;;
36445;SDS011;22472;50.848;-1.216;2023-09-19T06:37:52;18.90;;;2.97;;
36445;SDS011;22472;50.848;-1.216;2023-09-19T06:40:22;18.70;;;3.05;;
36445;SDS011;22472;50.848;-1.216;2023-09-19T06:42:50;19.40;;;3.17;;
36445;SDS011;22472;50.848;-1.216;2023-09-19T06:45:18;16.58;;;2.95;;
36445;SDS011;22472;50.848;-1.216;2023-09-19T06:47:46;19.10;;;3.08;;
36445;SDS011;22472;50.848;-1.216;2023-09-19T06:50:15;20.58;;;3.55;;
36445;SDS011;22472;50.848;-1.216;2023-09-19T06:52:43;22.55;;;3.80;;
36445;SDS011;22472;50.848;-1.216;2023-09-19T06:55:12;22.92;;;4.38;;
36445;SDS011;22472;50.848;-1.216;2023-09-19T06:57:41;24.95;;;3.85;;
36445;SDS011;22472;50.848;-1.216;2023-09-19T07:00:09;26.60;;;4.07;;
36445;SDS011;22472;50.848;-1.216;2023-09-19T07:02:40;23.55;;;4.03;;
36445;SDS011;22472;50.848;-1.216;2023-09-19T07:05:07;23.83;;;4.30;;
36445;SDS011;22472;50.848;-1.216;2023-09-19T07:07:35;24.05;;;4.25;;
36445;SDS011;22472;50.848;-1.216;2023-09-19T07:10:03;20.30;;;3.78;;
36445;SDS011;22472;50.848;-1.216;2023-09-19T07:12:32;25.88;;;4.15;;
36445;SDS011;22472;50.848;-1.216;2023-09-19T07:14:59;27.55;;;4.45;;
36445;SDS011;22472;50.848;-1.216;2023-09-19T07:17:26;22.35;;;4.22;;
36445;SDS011;22472;50.848;-1.216;2023-09-19T07:19:55;26.10;;;4.10;;
36445;SDS011;22472;50.848;-1.216;2023-09-19T07:22:23;23.15;;;4.32;;
36445;SDS011;22472;50.848;-1.216;2023-09-19T07:24:50;24.77;;;4.47;;
36445;SDS011;22472;50.848;-1.216;2023-09-19T07:27:17;24.92;;;4.40;;
36445;SDS011;22472;50.848;-1.216;2023-09-19T07:29:46;23.08;;;4.60;;
36445;SDS011;22472;50.848;-1.216;2023-09-19T07:32:13;24.90;;;4.35;;
36445;SDS011;22472;50.848;-1.216;2023-09-19T07:34:42;26.35;;;4.90;;
36445;SDS011;22472;50.848;-1.216;2023-09-19T07:37:10;27.55;;;4.72;;
36445;SDS011;22472;50.848;-1.216;2023-09-19T07:39:38;22.45;;;4.53;;
36445;SDS011;22472;50.848;-1.216;2023-09-19T07:42:06;21.10;;;4.28;;
36445;SDS011;22472;50.848;-1.216;2023-09-19T07:44:34;24.88;;;4.65;;
36445;SDS011;22472;50.848;-1.216;2023-09-19T07:47:03;23.58;;;4.30;;
36445;SDS011;22472;50.848;-1.216;2023-09-19T07:49:30;25.80;;;5.20;;
36445;SDS011;22472;50.848;-1.216;2023-09-19T07:51:58;22.45;;;4.32;;
36445;SDS011;22472;50.848;-1.216;2023-09-19T07:54:26;28.13;;;5.18;;
36445;SDS011;22472;50.848;-1.216;2023-09-19T07:56:55;24.00;;;5.07;;
36445;SDS011;22472;50.848;-1.216;2023-09-19T07:59:23;25.50;;;4.90;;
36445;SDS011;22472;50.848;-1.216;2023-09-19T08:01:51;31.33;;;4.93;;
36445;SDS011;22472;50.848;-1.216;2023-09-19T08:04:19;25.33;;;4.97;;
36445;SDS011;22472;50.848;-1.216;2023-09-19T08:06:47;24.60;;;4.63;;
36445;SDS011;22472;50.848;-1.216;2023-09-19T08:09:17;21.65;;;3.92;;
36445;SDS011;22472;50.848;-1.216;2023-09-19T08:11:46;25.23;;;4.57;;
36445;SDS011;22472;50.848;-1.216;2023-09-19T08:14:13;29.35;;;5.03;;
36445;SDS011;22472;50.848;-1.216;2023-09-19T08:16:40;24.90;;;4.40;;
36445;SDS011;22472;50.848;-1.216;2023-09-19T08:19:09;31.70;;;4.72;;
36445;SDS011;22472;50.848;-1.216;2023-09-19T08:21:38;23.48;;;4.40;;
36445;SDS011;22472;50.848;-1.216;2023-09-19T08:24:06;31.08;;;5.30;;
36445;SDS011;22472;50.848;-1.216;2023-09-19T08:26:34;28.42;;;6.20;;
36445;SDS011;22472;50.848;-1.216;2023-09-19T08:29:03;30.90;;;6.25;;
36445;SDS011;22472;50.848;-1.216;2023-09-19T08:31:32;30.10;;;5.38;;
36445;SDS011;22472;50.848;-1.216;2023-09-19T08:34:00;23.95;;;5.25;;
36445;SDS011;22472;50.848;-1.216;2023-09-19T08:36:27;26.67;;;5.65;;
36445;SDS011;22472;50.848;-1.216;2023-09-19T08:38:57;23.45;;;5.07;;
36445;SDS011;22472;50.848;-1.216;2023-09-19T08:41:25;22.27;;;4.88;;
36445;SDS011;22472;50.848;-1.216;2023-09-19T08:43:52;36.08;;;6.22;;
36445;SDS011;22472;50.848;-1.216;2023-09-19T08:46:20;25.05;;;5.38;;
36445;SDS011;22472;50.848;-1.216;2023-09-19T08:48:50;21.77;;;5.07;;
36445;SDS011;22472;50.848;-1.216;2023-09-19T08:51:21;25.40;;;4.93;;
36445;SDS011;22472;50.848;-1.216;2023-09-19T08:53:54;28.38;;;5.90;;
36445;SDS011;22472;50.848;-1.216;2023-09-19T08:56:25;26.23;;;5.88;;
36445;SDS011;22472;50.848;-1.216;2023-09-19T08:58:55;29.48;;;5.60;;
36445;SDS011;22472;50.848;-1.216;2023-09-19T09:01:23;30.17;;;5.80;;
36445;SDS011;22472;50.848;-1.216;2023-09-19T09:03:54;27.70;;;6.18;;
36445;SDS011;22472;50.848;-1.216;2023-09-19T09:06:22;30.38;;;5.97;;
36445;SDS011;22472;50.848;-1.216;2023-09-19T09:08:50;27.17;;;6.32;;
36445;SDS011;22472;50.848;-1.216;2023-09-19T09:11:18;34.78;;;6.15;;
36445;SDS011;22472;50.848;-1.216;2023-09-19T09:13:47;30.50;;;6.70;;
36445;SDS011;22472;50.848;-1.216;2023-09-19T09:16:14;30.45;;;5.95;;
36445;SDS011;22472;50.848;-1.216;2023-09-19T09:18:43;27.23;;;6.22;;
36445;SDS011;22472;50.848;-1.216;2023-09-19T09:21:11;29.30;;;6.53;;
36445;SDS011;22472;50.848;-1.216;2023-09-19T09:23:39;31.42;;;5.80;;
36445;SDS011;22472;50.848;-1.216;2023-09-19T09:26:07;31.10;;;6.45;;
36445;SDS011;22472;50.848;-1.216;2023-09-19T09:28:34;27.65;;;5.68;;
36445;SDS011;22472;50.848;-1.216;2023-09-19T09:31:05;28.50;;;5.18;;
36445;SDS011;22472;50.848;-1.216;2023-09-19T09:33:34;27.70;;;5.30;;
36445;SDS011;22472;50.848;-1.216;2023-09-19T09:36:02;25.98;;;5.18;;
36445;SDS011;22472;50.848;-1.216;2023-09-19T09:38:42;28.27;;;5.60;;
36445;SDS011;22472;50.848;-1.216;2023-09-19T09:41:10;32.30;;;5.85;;
36445;SDS011;22472;50.848;-1.216;2023-09-19T09:43:41;21.90;;;4.55;;
36445;SDS011;22472;50.848;-1.216;2023-09-19T09:48:58;28.25;;;5.43;;
36445;SDS011;22472;50.848;-1.216;2023-09-19T09:51:41;36.85;;;6.00;;
36445;SDS011;22472;50.848;-1.216;2023-09-19T09:54:11;28.92;;;5.80;;
36445;SDS011;22472;50.848;-1.216;2023-09-19T09:56:53;28.70;;;5.88;;
36445;SDS011;22472;50.848;-1.216;2023-09-19T10:02:11;26.42;;;5.82;;
36445;SDS011;22472;50.848;-1.216;2023-09-19T10:04:43;35.20;;;7.00;;
36445;SDS011;22472;50.848;-1.216;2023-09-19T10:07:24;30.15;;;6.25;;
36445;SDS011;22472;50.848;-1.216;2023-09-19T10:09:53;33.88;;;6.88;;
36445;SDS011;22472;50.848;-1.216;2023-09-19T10:12:29;33.55;;;6.60;;
36445;SDS011;22472;50.848;-1.216;2023-09-19T10:15:00;33.50;;;6.72;;
36445;SDS011;22472;50.848;-1.216;2023-09-19T10:17:32;29.42;;;6.45;;
36445;SDS011;22472;50.848;-1.216;2023-09-19T10:20:03;30.58;;;6.88;;
36445;SDS011;22472;50.848;-1.216;2023-09-19T10:22:43;33.30;;;6.68;;
36445;SDS011;22472;50.848;-1.216;2023-09-19T10:25:22;29.65;;;6.13;;
36445;SDS011;22472;50.848;-1.216;2023-09-19T10:27:50;29.77;;;6.10;;
36445;SDS011;22472;50.848;-1.216;2023-09-19T10:30:20;26.00;;;5.55;;
36445;SDS011;22472;50.848;-1.216;2023-09-19T10:32:49;29.02;;;6.15;;
36445;SDS011;22472;50.848;-1.216;2023-09-19T10:35:24;29.20;;;6.07;;
36445;SDS011;22472;50.848;-1.216;2023-09-19T10:37:53;30.05;;;6.20;;
36445;SDS011;22472;50.848;-1.216;2023-09-19T10:40:21;26.95;;;6.05;;
36445;SDS011;22472;50.848;-1.216;2023-09-19T10:42:55;23.05;;;5.28;;
36445;SDS011;22472;50.848;-1.216;2023-09-19T10:45:27;27.83;;;5.72;;
36445;SDS011;22472;50.848;-1.216;2023-09-19T10:47:57;26.83;;;5.85;;
36445;SDS011;22472;50.848;-1.216;2023-09-19T10:50:25;31.90;;;6.25;;
36445;SDS011;22472;50.848;-1.216;2023-09-19T10:52:56;33.47;;;6.47;;
36445;SDS011;22472;50.848;-1.216;2023-09-19T10:55:30;29.20;;;5.78;;
36445;SDS011;22472;50.848;-1.216;2023-09-19T10:57:57;24.77;;;5.60;;
36445;SDS011;22472;50.848;-1.216;2023-09-19T11:00:51;28.13;;;5.78;;
36445;SDS011;22472;50.848;-1.216;2023-09-19T11:03:19;25.17;;;5.43;;
36445;SDS011;22472;50.848;-1.216;2023-09-19T11:06:02;27.85;;;5.78;;
36445;SDS011;22472;50.848;-1.216;2023-09-19T11:08:57;31.88;;;5.80;;
36445;SDS011;22472;50.848;-1.216;2023-09-19T11:11:41;29.40;;;6.30;;
36445;SDS011;22472;50.848;-1.216;2023-09-19T11:14:16;28.50;;;6.20;;
36445;SDS011;22472;50.848;-1.216;2023-09-19T11:25:45;31.30;;;7.10;;
36445;SDS011;22472;50.848;-1.216;2023-09-19T11:33:49;33.65;;;7.53;;
36445;SDS011;22472;50.848;-1.216;2023-09-19T11:36:37;38.63;;;7.25;;
36445;SDS011;22472;50.848;-1.216;2023-09-19T11:39:03;33.22;;;7.15;;
36445;SDS011;22472;50.848;-1.216;2023-09-19T11:41:41;31.13;;;7.07;;
36445;SDS011;22472;50.848;-1.216;2023-09-19T11:46:52;30.17;;;7.18;;
36445;SDS011;22472;50.848;-1.216;2023-09-19T11:49:23;32.75;;;6.90;;
36445;SDS011;22472;50.848;-1.216;2023-09-19T11:51:55;32.25;;;7.00;;
36445;SDS011;22472;50.848;-1.216;2023-09-19T11:54:24;26.00;;;5.78;;
36445;SDS011;22472;50.848;-1.216;2023-09-19T11:56:55;25.15;;;5.78;;
36445;SDS011;22472;50.848;-1.216;2023-09-19T11:59:23;31.85;;;6.28;;
36445;SDS011;22472;50.848;-1.216;2023-09-19T12:01:54;31.42;;;6.18;;
36445;SDS011;22472;50.848;-1.216;2023-09-19T12:04:33;34.60;;;6.60;;
36445;SDS011;22472;50.848;-1.216;2023-09-19T12:07:03;29.58;;;5.93;;
36445;SDS011;22472;50.848;-1.216;2023-09-19T12:09:31;32.92;;;5.43;;
36445;SDS011;22472;50.848;-1.216;2023-09-19T12:11:59;30.65;;;5.45;;
36445;SDS011;22472;50.848;-1.216;2023-09-19T12:14:27;31.00;;;5.93;;
36445;SDS011;22472;50.848;-1.216;2023-09-19T12:16:54;34.42;;;6.03;;
36445;SDS011;22472;50.848;-1.216;2023-09-19T12:19:22;31.95;;;6.03;;
36445;SDS011;22472;50.848;-1.216;2023-09-19T12:21:56;27.23;;;5.07;;
36445;SDS011;22472;50.848;-1.216;2023-09-19T12:24:24;25.48;;;4.95;;
36445;SDS011;22472;50.848;-1.216;2023-09-19T12:26:55;24.42;;;4.65;;
36445;SDS011;22472;50.848;-1.216;2023-09-19T12:29:31;19.45;;;4.38;;
36445;SDS011;22472;50.848;-1.216;2023-09-19T12:31:59;24.52;;;5.00;;
36445;SDS011;22472;50.848;-1.216;2023-09-19T12:34:29;24.20;;;4.83;;
36445;SDS011;22472;50.848;-1.216;2023-09-19T12:37:03;22.63;;;4.55;;
36445;SDS011;22472;50.848;-1.216;2023-09-19T12:39:36;21.17;;;4.30;;
36445;SDS011;22472;50.848;-1.216;2023-09-19T12:42:04;21.52;;;4.45;;
36445;SDS011;22472;50.848;-1.216;2023-09-19T12:44:35;21.30;;;4.47;;
36445;SDS011;22472;50.848;-1.216;2023-09-19T12:47:08;18.35;;;4.18;;
36445;SDS011;22472;50.848;-1.216;2023-09-19T12:49:36;22.73;;;4.72;;
36445;SDS011;22472;50.848;-1.216;2023-09-19T12:52:03;20.52;;;4.63;;
36445;SDS011;22472;50.848;-1.216;2023-09-19T12:54:38;21.83;;;4.32;;
36445;SDS011;22472;50.848;-1.216;2023-09-19T12:57:06;25.55;;;4.43;;
36445;SDS011;22472;50.848;-1.216;2023-09-19T12:59:34;25.35;;;5.00;;
36445;SDS011;22472;50.848;-1.216;2023-09-19T13:02:05;23.38;;;4.38;;
36445;SDS011;22472;50.848;-1.216;2023-09-19T13:04:39;24.52;;;5.03;;
36445;SDS011;22472;50.848;-1.216;2023-09-19T13:07:08;27.08;;;4.75;;
36445;SDS011;22472;50.848;-1.216;2023-09-19T13:10:03;21.88;;;4.53;;
36445;SDS011;22472;50.848;-1.216;2023-09-19T13:12:36;28.40;;;5.00;;
36445;SDS011;22472;50.848;-1.216;2023-09-19T13:15:07;22.15;;;4.97;;
36445;SDS011;22472;50.848;-1.216;2023-09-19T13:17:46;29.67;;;5.68;;
36445;SDS011;22472;50.848;-1.216;2023-09-19T13:20:20;29.73;;;5.72;;
36445;SDS011;22472;50.848;-1.216;2023-09-19T13:22:52;26.30;;;4.93;;
36445;SDS011;22472;50.848;-1.216;2023-09-19T13:25:25;21.05;;;4.72;;
36445;SDS011;22472;50.848;-1.216;2023-09-19T13:27:55;28.02;;;5.38;;
36445;SDS011;22472;50.848;-1.216;2023-09-19T13:30:23;26.75;;;4.57;;
36445;SDS011;22472;50.848;-1.216;2023-09-19T13:32:52;24.58;;;5.00;;
36445;SDS011;22472;50.848;-1.216;2023-09-19T13:35:19;27.13;;;5.38;;
36445;SDS011;22472;50.848;-1.216;2023-09-19T13:37:47;28.52;;;4.78;;
36445;SDS011;22472;50.848;-1.216;2023-09-19T13:40:17;26.90;;;4.53;;
36445;SDS011;22472;50.848;-1.216;2023-09-19T13:42:44;25.83;;;4.70;;
36445;SDS011;22472;50.848;-1.216;2023-09-19T13:45:11;27.25;;;5.18;;
36445;SDS011;22472;50.848;-1.216;2023-09-19T13:47:42;26.92;;;4.90;;
36445;SDS011;22472;50.848;-1.216;2023-09-19T13:50:11;31.60;;;5.60;;
36445;SDS011;22472;50.848;-1.216;2023-09-19T13:52:39;27.27;;;5.38;;
36445;SDS011;22472;50.848;-1.216;2023-09-19T13:55:07;27.58;;;6.07;;
36445;SDS011;22472;50.848;-1.216;2023-09-19T13:57:34;28.42;;;5.82;;
36445;SDS011;22472;50.848;-1.216;2023-09-19T14:00:02;27.80;;;6.05;;
36445;SDS011;22472;50.848;-1.216;2023-09-19T14:02:30;28.45;;;6.10;;
36445;SDS011;22472;50.848;-1.216;2023-09-19T14:04:57;31.92;;;6.55;;
36445;SDS011;22472;50.848;-1.216;2023-09-19T14:07:26;33.15;;;6.70;;
36445;SDS011;22472;50.848;-1.216;2023-09-19T14:09:53;32.88;;;6.05;;
36445;SDS011;22472;50.848;-1.216;2023-09-19T14:12:20;29.67;;;6.50;;
36445;SDS011;22472;50.848;-1.216;2023-09-19T14:14:48;31.75;;;6.57;;
36445;SDS011;22472;50.848;-1.216;2023-09-19T14:17:16;32.03;;;6.25;;
36445;SDS011;22472;50.848;-1.216;2023-09-19T14:19:43;31.33;;;5.97;;
36445;SDS011;22472;50.848;-1.216;2023-09-19T14:22:11;32.92;;;5.97;;
36445;SDS011;22472;50.848;-1.216;2023-09-19T14:24:40;29.35;;;5.68;;
36445;SDS011;22472;50.848;-1.216;2023-09-19T14:27:08;29.80;;;5.70;;
36445;SDS011;22472;50.848;-1.216;2023-09-19T14:29:35;32.08;;;5.85;;
36445;SDS011;22472;50.848;-1.216;2023-09-19T14:32:03;27.42;;;4.82;;
36445;SDS011;22472;50.848;-1.216;2023-09-19T14:34:30;29.30;;;5.45;;
36445;SDS011;22472;50.848;-1.216;2023-09-19T14:36:58;34.63;;;6.40;;
36445;SDS011;22472;50.848;-1.216;2023-09-19T14:39:25;28.65;;;5.20;;
36445;SDS011;22472;50.848;-1.216;2023-09-19T14:41:55;29.63;;;5.65;;
36445;SDS011;22472;50.848;-1.216;2023-09-19T14:44:22;26.25;;;5.15;;
36445;SDS011;22472;50.848;-1.216;2023-09-19T14:46:50;27.02;;;5.40;;
36445;SDS011;22472;50.848;-1.216;2023-09-19T14:49:17;29.88;;;5.43;;
36445;SDS011;22472;50.848;-1.216;2023-09-19T14:51:44;32.53;;;6.03;;
36445;SDS011;22472;50.848;-1.216;2023-09-19T14:54:12;34.08;;;5.90;;
36445;SDS011;22472;50.848;-1.216;2023-09-19T14:56:42;34.33;;;6.93;;
36445;SDS011;22472;50.848;-1.216;2023-09-19T14:59:10;31.70;;;6.68;;
36445;SDS011;22472;50.848;-1.216;2023-09-19T15:01:38;32.63;;;6.13;;